Time;durP1;ratioP1;P1;durP2;ratioP2;P2;SDS_P1;SDS_P2;PMS_P1;PMS_P2;Temp;Humidity;BMP_temperature;BMP_pressure;BME280_temperature;BME280_humidity;BME280_pressure;Samples;Min_cycle;Max_cycle;Signal;HPM_P1;HPM_P2
2021/09/01 00:01:46;;;;;;;;;;;;;;;18.09;64.00;99600.78;5032992;28;811;-59
2021/09/01 00:04:13;;;;;;;;;;;;;;;18.13;63.95;99600.63;5032761;28;799;-59
2021/09/01 00:06:38;;;;;;;;;;;;;;;18.16;63.65;99603.28;5032711;28;826;-59
2021/09/01 00:09:05;;;;;;;;;;;;;;;18.21;63.54;99598.31;5032651;28;933;-60
2021/09/01 00:11:32;;;;;;;;;;;;;;;18.22;63.44;99597.06;5032727;28;803;-59
2021/09/01 00:13:58;;;;;;;;;;;;;;;18.16;63.68;99603.28;5032513;28;853;-59
2021/09/01 00:16:28;;;;;;;;;;;;;;;18.07;64.06;99608.03;5032522;28;799;-59
2021/09/01 00:18:56;;;;;;;;;;;;;;;18.01;64.36;99607.88;5032371;28;1894;-60
2021/09/01 00:21:22;;;;;;;;;;;;;;;17.99;64.57;99603.94;5032536;28;811;-60
2021/09/01 00:23:49;;;;;;;;;;;;;;;18.01;64.61;99602.28;5031705;28;808;-60
2021/09/01 00:26:16;;;;;;;;;;;;;;;18.05;64.57;99610.50;5032338;28;838;-60
2021/09/01 00:28:43;;;;;;;;;;;;;;;18.04;64.64;99601.34;5032337;28;1061;-59
2021/09/01 00:31:10;;;;;;;;;;;;;;;18.02;64.70;99600.25;5032097;28;1227;-59
2021/09/01 00:33:37;;;;;;;;;;;;;;;18.00;64.79;99594.34;5032234;28;861;-59
2021/09/01 00:36:04;;;;;;;;;;;;;;;17.98;65.01;99592.00;5032219;28;866;-60
2021/09/01 00:38:31;;;;;;;;;;;;;;;17.91;65.04;99592.28;5032068;28;1910;-59
2021/09/01 00:40:58;;;;;;;;;;;;;;;17.76;65.37;99578.81;5014299;28;1177;-59
2021/09/01 00:43:24;;;;;;;;;;;;;;;17.64;65.60;99579.66;5032093;28;862;-59
2021/09/01 00:45:51;;;;;;;;;;;;;;;17.54;65.94;99583.66;5032204;28;811;-59
2021/09/01 00:48:17;;;;;;;;;;;;;;;17.46;66.01;99579.56;5032010;28;842;-59
2021/09/01 00:50:47;;;;;;;;;;;;;;;17.37;66.41;99579.47;5031938;28;885;-59
2021/09/01 00:53:14;;;;;;;;;;;;;;;17.35;66.50;99577.94;5031891;28;954;-59
2021/09/01 00:55:49;;;;;;;;;;;;;;;17.32;67.06;99590.00;5031877;28;806;-59
2021/09/01 00:58:21;;;;;;;;;;;;;;;17.29;67.13;99578.97;5031803;28;1890;-59
2021/09/01 01:03:33;;;;;;;;;;;;;;;17.30;66.95;99584.13;5031736;28;1329;-59
2021/09/01 01:05:59;;;;;;;;;;;;;;;17.30;67.14;99578.53;5031755;28;858;-59
2021/09/01 01:08:29;;;;;;;;;;;;;;;17.29;67.14;99582.53;5031777;28;1037;-60
2021/09/01 01:10:58;;;;;;;;;;;;;;;17.30;66.85;99586.91;5032031;28;803;-59
2021/09/01 01:13:28;;;;;;;;;;;;;;;17.27;67.02;99578.66;5032068;28;913;-59
2021/09/01 01:15:55;;;;;;;;;;;;;;;17.26;66.97;99575.09;5031451;28;879;-59
2021/09/01 01:18:22;;;;;;;;;;;;;;;17.21;67.00;99577.66;5013977;28;1914;-59
2021/09/01 01:20:49;;;;;;;;;;;;;;;17.10;67.31;99569.66;5031558;28;870;-59
2021/09/01 01:23:20;;;;;;;;;;;;;;;17.01;67.47;99573.16;5031584;28;830;-59
2021/09/01 01:25:46;;;;;;;;;;;;;;;16.97;67.56;99572.50;5031556;28;822;-59
2021/09/01 01:28:13;;;;;;;;;;;;;;;16.97;67.44;99574.53;5031535;28;961;-59
2021/09/01 01:30:41;;;;;;;;;;;;;;;16.93;67.80;99575.41;5031275;28;1337;-59
2021/09/01 01:33:07;;;;;;;;;;;;;;;16.95;67.51;99583.34;5031512;28;873;-59
2021/09/01 01:35:35;;;;;;;;;;;;;;;16.93;67.49;99583.78;5034432;28;842;-59
2021/09/01 01:38:03;;;;;;;;;;;;;;;16.88;68.07;99601.13;5035416;28;1963;-59
2021/09/01 01:40:30;;;;;;;;;;;;;;;16.82;68.26;99597.34;5035423;28;889;-59
2021/09/01 01:42:57;;;;;;;;;;;;;;;16.79;68.54;99600.22;5035708;28;914;-59
2021/09/01 01:45:25;;;;;;;;;;;;;;;16.81;68.44;99604.13;5035283;28;916;-59
2021/09/01 01:47:51;;;;;;;;;;;;;;;16.82;68.27;99593.78;5035353;28;795;-60
2021/09/01 01:50:18;;;;;;;;;;;;;;;16.81;68.13;99597.78;5035347;28;826;-60
2021/09/01 01:52:45;;;;;;;;;;;;;;;16.79;68.06;99595.44;5035196;28;1032;-59
2021/09/01 01:55:11;;;;;;;;;;;;;;;16.71;68.31;99588.53;5035235;28;863;-60
2021/09/01 01:57:38;;;;;;;;;;;;;;;16.64;68.42;99588.75;5035163;28;796;-60
2021/09/01 02:00:05;;;;;;;;;;;;;;;16.58;68.57;99585.75;5035079;28;925;-59
2021/09/01 02:02:32;;;;;;;;;;;;;;;16.48;68.92;99582.06;5035052;28;954;-59
2021/09/01 02:04:59;;;;;;;;;;;;;;;16.41;69.08;99587.09;5035031;28;881;-59
2021/09/01 02:07:27;;;;;;;;;;;;;;;16.42;69.53;99589.44;5035214;28;803;-60
2021/09/01 02:09:54;;;;;;;;;;;;;;;16.49;69.26;99588.44;5034888;28;856;-59
2021/09/01 02:12:21;;;;;;;;;;;;;;;16.51;69.09;99586.78;5034929;28;863;-59
2021/09/01 02:14:48;;;;;;;;;;;;;;;16.50;69.00;99584.44;5034720;28;858;-59
2021/09/01 02:17:14;;;;;;;;;;;;;;;16.42;69.13;99585.88;5034863;28;886;-59
2021/09/01 02:19:41;;;;;;;;;;;;;;;16.30;69.10;99590.22;5034689;28;1948;-59
2021/09/01 02:22:08;;;;;;;;;;;;;;;16.25;69.42;99590.81;5034671;28;881;-59
2021/09/01 02:24:35;;;;;;;;;;;;;;;16.24;69.31;99595.59;5034758;28;893;-59
2021/09/01 02:27:01;;;;;;;;;;;;;;;16.29;69.18;99597.06;5034669;28;806;-59
2021/09/01 02:29:28;;;;;;;;;;;;;;;16.52;68.15;99590.34;5034530;28;1371;-60
2021/09/01 02:31:55;;;;;;;;;;;;;;;16.81;66.70;99584.59;5034597;28;794;-59
2021/09/01 02:34:21;;;;;;;;;;;;;;;17.06;65.91;99586.53;5034698;28;775;-59
2021/09/01 02:36:48;;;;;;;;;;;;;;;17.20;65.33;99587.25;5034494;28;886;-59
2021/09/01 02:39:15;;;;;;;;;;;;;;;17.22;65.29;99582.00;5034311;28;1975;-59
2021/09/01 02:41:41;;;;;;;;;;;;;;;17.16;65.07;99581.81;5034448;28;818;-59
2021/09/01 02:44:08;;;;;;;;;;;;;;;17.07;65.14;99576.94;5034227;28;797;-59
2021/09/01 02:46:34;;;;;;;;;;;;;;;17.06;64.83;99566.22;5033590;28;913;-59
2021/09/01 02:49:01;;;;;;;;;;;;;;;17.35;61.94;99554.81;5034274;28;830;-59
2021/09/01 02:51:28;;;;;;;;;;;;;;;17.78;60.45;99563.63;5034497;28;848;-59
2021/09/01 02:53:55;;;;;;;;;;;;;;;18.07;57.76;99555.72;5034249;28;815;-60
2021/09/01 02:56:21;;;;;;;;;;;;;;;18.60;54.91;99563.16;5034229;28;844;-59
2021/09/01 02:58:48;;;;;;;;;;;;;;;19.17;51.62;99569.13;5034068;28;1965;-59
2021/09/01 03:01:14;;;;;;;;;;;;;;;19.69;50.34;99571.25;5034047;28;537;-59
2021/09/01 03:03:41;;;;;;;;;;;;;;;19.50;52.39;99578.91;5033983;28;898;-59
2021/09/01 03:06:07;;;;;;;;;;;;;;;18.93;54.50;99579.41;5033963;28;802;-60
2021/09/01 03:08:34;;;;;;;;;;;;;;;18.45;56.04;99585.34;5034014;28;858;-60
2021/09/01 03:11:00;;;;;;;;;;;;;;;18.15;56.88;99579.34;5034055;28;846;-60
2021/09/01 03:13:27;;;;;;;;;;;;;;;18.01;57.24;99593.09;5033876;28;842;-59
2021/09/01 03:15:54;;;;;;;;;;;;;;;17.94;57.47;99580.16;5034016;28;839;-59
2021/09/01 03:18:21;;;;;;;;;;;;;;;17.98;57.12;99594.78;5033899;28;1894;-59
2021/09/01 03:20:48;;;;;;;;;;;;;;;17.93;57.29;99585.00;5033963;28;811;-59
2021/09/01 03:23:14;;;;;;;;;;;;;;;17.80;57.34;99577.91;5033868;28;827;-59
2021/09/01 03:25:41;;;;;;;;;;;;;;;17.64;57.83;99585.25;5034520;28;751;-59
2021/09/01 03:28:07;;;;;;;;;;;;;;;17.61;57.74;99577.03;5033577;28;1016;-60
2021/09/01 03:30:34;;;;;;;;;;;;;;;17.53;58.06;99576.50;5033278;28;1489;-59
2021/09/01 03:33:00;;;;;;;;;;;;;;;17.35;58.63;99579.97;5033423;28;1012;-59
2021/09/01 03:35:27;;;;;;;;;;;;;;;17.17;59.11;99572.19;5033443;28;878;-59
2021/09/01 03:37:54;;;;;;;;;;;;;;;17.05;59.22;99578.63;5033176;28;1980;-59
2021/09/01 03:40:20;;;;;;;;;;;;;;;17.34;58.27;99579.16;5033257;28;944;-59
2021/09/01 03:42:47;;;;;;;;;;;;;;;17.61;57.24;99563.81;5033165;28;842;-59
2021/09/01 03:45:14;;;;;;;;;;;;;;;17.81;56.62;99574.63;5033185;28;839;-59
2021/09/01 03:47:41;;;;;;;;;;;;;;;17.78;56.89;99572.00;5033106;28;843;-59
2021/09/01 03:50:09;;;;;;;;;;;;;;;17.81;56.28;99583.03;5033056;28;834;-60
2021/09/01 03:52:35;;;;;;;;;;;;;;;18.25;54.97;99598.97;5032966;28;887;-59
2021/09/01 03:55:02;;;;;;;;;;;;;;;18.54;54.07;99599.38;5033029;28;894;-59
2021/09/01 03:57:28;;;;;;;;;;;;;;;18.95;52.04;99585.31;5032290;28;858;-60
2021/09/01 03:59:54;;;;;;;;;;;;;;;19.31;51.23;99580.94;5032418;28;1943;-59
2021/09/01 04:02:21;;;;;;;;;;;;;;;19.52;49.46;99588.44;5032891;28;839;-60
2021/09/01 04:04:48;;;;;;;;;;;;;;;19.77;48.88;99592.13;5032782;28;810;-60
2021/09/01 04:07:14;;;;;;;;;;;;;;;19.92;48.56;99601.44;5032708;28;889;-59
2021/09/01 04:09:41;;;;;;;;;;;;;;;20.02;47.82;99593.78;5032714;28;858;-61
2021/09/01 04:12:07;;;;;;;;;;;;;;;20.13;47.80;99585.63;5032593;28;881;-60
2021/09/01 04:14:34;;;;;;;;;;;;;;;20.08;48.16;99596.69;5032561;28;903;-59
2021/09/01 04:17:03;;;;;;;;;;;;;;;20.02;48.03;99593.00;5032590;28;966;-60
2021/09/01 04:19:29;;;;;;;;;;;;;;;19.98;48.04;99593.94;5032441;28;1886;-59
2021/09/01 04:21:56;;;;;;;;;;;;;;;19.99;47.84;99591.91;5032755;28;795;-60
2021/09/01 04:24:23;;;;;;;;;;;;;;;20.09;47.63;99609.50;5032478;28;823;-60
2021/09/01 04:26:50;;;;;;;;;;;;;;;20.15;47.37;99596.38;5032409;28;914;-59
2021/09/01 04:29:17;;;;;;;;;;;;;;;20.26;47.40;99602.25;5032323;28;1209;-60
2021/09/01 04:31:44;;;;;;;;;;;;;;;20.29;47.19;99606.94;5032312;28;795;-59
2021/09/01 04:34:11;;;;;;;;;;;;;;;20.28;47.35;99610.97;5032270;28;803;-59
2021/09/01 04:36:37;;;;;;;;;;;;;;;20.24;47.60;99618.78;5032218;28;787;-60
2021/09/01 04:39:03;;;;;;;;;;;;;;;20.22;47.83;99612.88;5032055;28;1960;-59
2021/09/01 04:41:29;;;;;;;;;;;;;;;20.17;48.22;99621.94;5032208;28;873;-59
2021/09/01 04:43:56;;;;;;;;;;;;;;;20.13;48.33;99618.50;5032151;28;803;-59
2021/09/01 04:46:22;;;;;;;;;;;;;;;20.07;48.53;99618.38;5032060;28;872;-60
2021/09/01 04:48:49;;;;;;;;;;;;;;;19.99;48.86;99625.56;5032395;28;795;-60
2021/09/01 04:51:16;;;;;;;;;;;;;;;20.01;48.47;99620.25;5031880;28;787;-60
2021/09/01 04:53:43;;;;;;;;;;;;;;;19.99;48.96;99617.16;5031970;28;882;-60
2021/09/01 04:56:09;;;;;;;;;;;;;;;19.92;48.96;99631.50;5031925;28;799;-59
2021/09/01 04:58:35;;;;;;;;;;;;;;;19.88;49.29;99623.25;5032066;28;1977;-60
2021/09/01 05:01:03;;;;;;;;;;;;;;;19.82;49.48;99627.94;5031878;28;795;-60
2021/09/01 05:03:29;;;;;;;;;;;;;;;19.87;48.95;99621.72;5031818;28;866;-60
2021/09/01 05:05:56;;;;;;;;;;;;;;;19.98;48.76;99615.59;5031764;28;862;-59
2021/09/01 05:08:23;;;;;;;;;;;;;;;20.01;48.71;99625.88;5031720;28;866;-59
2021/09/01 05:15:59;;;;;;;;;;;;;;;20.01;49.09;99616.69;5693378;23;1663;-60
2021/09/01 05:18:26;;;;;;;;;;;;;;;20.30;48.45;99616.88;5071851;28;1964;-60
2021/09/01 05:20:57;;;;;;;;;;;;;;;20.63;47.77;99623.78;5071620;28;1260;-59
2021/09/01 05:23:29;;;;;;;;;;;;;;;20.92;47.40;99617.53;5070228;28;1202;-59
2021/09/01 05:26:00;;;;;;;;;;;;;;;21.24;45.79;99623.53;5071545;28;810;-60
2021/09/01 05:28:29;;;;;;;;;;;;;;;21.51;44.93;99617.72;5071527;28;872;-59
2021/09/01 05:30:54;;;;;;;;;;;;;;;21.73;44.06;99603.28;5071420;28;810;-60
2021/09/01 05:33:21;;;;;;;;;;;;;;;22.00;43.28;99598.63;5071387;28;845;-60
2021/09/01 05:35:49;;;;;;;;;;;;;;;22.01;42.56;99600.94;5071486;28;912;-61
2021/09/01 05:38:20;;;;;;;;;;;;;;;22.14;42.75;99586.56;5071261;28;1921;-61
2021/09/01 05:40:47;;;;;;;;;;;;;;;22.30;41.86;99593.75;5071418;28;845;-61
2021/09/01 05:43:16;;;;;;;;;;;;;;;22.45;41.92;99593.72;5071320;28;853;-61
2021/09/01 05:45:46;;;;;;;;;;;;;;;22.71;40.94;99584.59;5071938;28;782;-61
2021/09/01 05:48:13;;;;;;;;;;;;;;;23.03;40.54;99577.09;5071319;28;897;-60
2021/09/01 05:50:42;;;;;;;;;;;;;;;23.45;38.47;99575.75;5071348;28;826;-61
2021/09/01 05:53:10;;;;;;;;;;;;;;;24.06;37.28;99569.13;5071276;28;880;-61
2021/09/01 05:55:37;;;;;;;;;;;;;;;24.45;36.18;99563.75;5071308;28;869;-60
2021/09/01 05:58:04;;;;;;;;;;;;;;;24.79;35.48;99568.81;5071163;28;1889;-61
2021/09/01 06:00:32;;;;;;;;;;;;;;;25.21;34.72;99567.19;5071193;28;1060;-61
2021/09/01 06:03:17;;;;;;;;;;;;;;;25.51;34.32;99569.56;5071216;28;869;-61
2021/09/01 06:05:44;;;;;;;;;;;;;;;25.68;33.86;99562.63;5071347;28;930;-61
2021/09/01 06:08:11;;;;;;;;;;;;;;;25.42;34.25;99564.94;5071093;28;964;-61
2021/09/01 06:10:39;;;;;;;;;;;;;;;25.60;33.86;99560.84;5071132;28;901;-60
2021/09/01 06:13:07;;;;;;;;;;;;;;;26.02;33.09;99564.75;5071037;28;928;-61
2021/09/01 06:15:34;;;;;;;;;;;;;;;26.22;32.58;99570.13;5071000;28;1004;-61
2021/09/01 06:18:01;;;;;;;;;;;;;;;26.73;31.75;99560.75;5070860;28;1910;-61
2021/09/01 06:20:28;;;;;;;;;;;;;;;27.23;30.84;99563.38;5070972;28;814;-61
2021/09/01 06:22:54;;;;;;;;;;;;;;;27.16;30.64;99549.75;5074218;28;827;-61
2021/09/01 06:25:20;;;;;;;;;;;;;;;27.15;30.04;99555.94;5074696;28;869;-61
2021/09/01 06:27:47;;;;;;;;;;;;;;;26.61;31.33;99552.28;5074598;28;877;-62
2021/09/01 06:30:14;;;;;;;;;;;;;;;26.80;30.50;99554.53;5074560;28;893;-60
2021/09/01 06:32:40;;;;;;;;;;;;;;;26.84;31.22;99555.81;5074514;28;921;-61
2021/09/01 06:35:07;;;;;;;;;;;;;;;27.15;29.90;99553.84;5074511;28;829;-60
2021/09/01 06:37:34;;;;;;;;;;;;;;;27.29;29.84;99554.84;5074371;28;806;-61
2021/09/01 06:40:01;;;;;;;;;;;;;;;26.64;30.45;99565.41;5074385;28;1971;-61
2021/09/01 06:42:27;;;;;;;;;;;;;;;26.47;31.44;99559.00;5074393;28;810;-60
2021/09/01 06:44:54;;;;;;;;;;;;;;;26.82;31.64;99566.13;5074542;28;852;-61
2021/09/01 06:47:20;;;;;;;;;;;;;;;27.34;30.28;99565.38;5074502;28;814;-61
2021/09/01 06:49:47;;;;;;;;;;;;;;;27.88;30.03;99581.78;5074436;28;841;-61
2021/09/01 06:52:14;;;;;;;;;;;;;;;28.18;29.27;99578.16;5074626;28;805;-61
2021/09/01 06:54:40;;;;;;;;;;;;;;;27.92;29.63;99589.28;5074282;28;909;-61
2021/09/01 06:57:07;;;;;;;;;;;;;;;28.01;30.38;99591.75;5074530;28;834;-62
2021/09/01 06:59:34;;;;;;;;;;;;;;;28.57;30.10;99599.00;5073987;28;1945;-62
2021/09/01 07:02:00;;;;;;;;;;;;;;;28.68;30.04;99593.22;5074666;28;853;-60
2021/09/01 07:04:26;;;;;;;;;;;;;;;29.21;28.97;99596.47;5072637;28;1469;-62
2021/09/01 07:06:52;;;;;;;;;;;;;;;29.25;29.08;99607.53;5074066;28;886;-61
2021/09/01 07:21:50;;;;;;;;;;;;;;;29.79;27.38;99609.38;5073658;28;667;-62
2021/09/01 07:24:16;;;;;;;;;;;;;;;29.95;27.46;99598.25;5073584;28;900;-61
2021/09/01 07:26:42;;;;;;;;;;;;;;;30.07;27.33;99594.66;5073565;28;872;-63
2021/09/01 07:29:09;;;;;;;;;;;;;;;30.12;26.84;99599.50;5073465;28;873;-63
2021/09/01 07:31:35;;;;;;;;;;;;;;;29.49;27.61;99601.75;5073360;28;841;-62
2021/09/01 07:34:02;;;;;;;;;;;;;;;29.09;28.28;99612.13;5073191;28;872;-63
2021/09/01 07:36:29;;;;;;;;;;;;;;;29.22;28.04;99609.38;5073257;28;829;-62
2021/09/01 07:38:55;;;;;;;;;;;;;;;28.44;29.54;99608.94;5073301;28;1985;-62
2021/09/01 07:41:22;;;;;;;;;;;;;;;28.17;29.58;99607.91;5073187;28;892;-62
2021/09/01 07:43:49;;;;;;;;;;;;;;;27.95;30.00;99616.59;5073158;28;802;-62
2021/09/01 07:46:14;;;;;;;;;;;;;;;28.29;30.02;99629.22;5073160;28;838;-63
2021/09/01 07:48:41;;;;;;;;;;;;;;;27.96;30.83;99623.84;5073383;28;877;-62
2021/09/01 07:51:08;;;;;;;;;;;;;;;28.20;29.93;99618.19;5073009;28;909;-62
2021/09/01 07:53:36;;;;;;;;;;;;;;;28.56;28.88;99618.13;5072961;28;841;-62
2021/09/01 07:56:03;;;;;;;;;;;;;;;28.54;29.57;99609.38;5072894;28;897;-62
2021/09/01 07:58:29;;;;;;;;;;;;;;;29.71;27.89;99602.75;5072679;28;1977;-62
2021/09/01 08:00:56;;;;;;;;;;;;;;;29.88;27.40;99613.91;5072885;28;806;-62
2021/09/01 08:03:22;;;;;;;;;;;;;;;28.44;28.91;99613.84;5072776;28;814;-62
2021/09/01 08:05:49;;;;;;;;;;;;;;;27.15;30.58;99621.94;5072744;28;897;-61
2021/09/01 08:08:16;;;;;;;;;;;;;;;26.54;32.42;99620.03;5072660;28;913;-62
2021/09/01 08:10:43;;;;;;;;;;;;;;;26.22;32.68;99614.66;5071359;28;1174;-62
2021/09/01 08:13:08;;;;;;;;;;;;;;;26.10;33.58;99622.41;5072414;28;886;-61
2021/09/01 08:15:35;;;;;;;;;;;;;;;25.93;33.31;99621.63;5072672;28;950;-62
2021/09/01 08:18:01;;;;;;;;;;;;;;;25.67;34.20;99622.59;5072455;28;1960;-62
2021/09/01 08:20:28;;;;;;;;;;;;;;;25.33;34.53;99631.00;5072298;28;1292;-61
2021/09/01 08:22:55;;;;;;;;;;;;;;;25.39;35.31;99633.84;5072438;28;846;-61
2021/09/01 08:25:22;;;;;;;;;;;;;;;25.68;34.92;99621.31;5072565;28;802;-61
2021/09/01 08:27:48;;;;;;;;;;;;;;;26.02;33.71;99629.88;5072320;28;969;-61
2021/09/01 08:30:16;;;;;;;;;;;;;;;26.22;33.88;99635.28;5072661;28;913;-61
2021/09/01 08:32:42;;;;;;;;;;;;;;;26.52;33.66;99634.72;5072257;28;877;-61
2021/09/01 08:35:09;;;;;;;;;;;;;;;26.84;33.39;99640.09;5072173;28;826;-61
2021/09/01 08:37:37;;;;;;;;;;;;;;;27.04;32.84;99636.16;5072374;28;854;-61
2021/09/01 08:40:06;;;;;;;;;;;;;;;27.12;32.04;99627.88;5072281;28;1905;-61
2021/09/01 08:42:33;;;;;;;;;;;;;;;26.83;32.87;99621.53;5070667;28;2133;-61
2021/09/01 08:44:59;;;;;;;;;;;;;;;26.60;32.98;99627.25;5071401;28;798;-61
2021/09/01 08:47:26;;;;;;;;;;;;;;;26.21;33.67;99619.56;5072045;28;853;-61
2021/09/01 08:49:53;;;;;;;;;;;;;;;25.82;34.25;99617.47;5071881;28;842;-61
2021/09/01 08:52:21;;;;;;;;;;;;;;;25.68;35.27;99610.75;5072139;28;811;-60
2021/09/01 08:54:47;;;;;;;;;;;;;;;25.94;34.88;99609.78;5071872;28;830;-63
2021/09/01 08:57:14;;;;;;;;;;;;;;;26.42;34.10;99602.28;5071831;28;892;-61
2021/09/01 08:59:39;;;;;;;;;;;;;;;26.93;33.09;99605.00;5071702;28;1878;-60
2021/09/01 09:02:07;;;;;;;;;;;;;;;27.82;31.74;99598.06;5071902;28;861;-61
2021/09/01 09:04:38;;;;;;;;;;;;;;;27.89;30.96;99591.88;5072086;28;864;-61
2021/09/01 09:07:06;;;;;;;;;;;;;;;27.66;31.25;99593.31;5071750;28;896;-61
2021/09/01 09:09:39;;;;;;;;;;;;;;;27.44;31.13;99589.31;5071853;28;809;-61
2021/09/01 09:12:06;;;;;;;;;;;;;;;27.85;30.42;99584.91;5071655;28;822;-62
2021/09/01 09:14:40;;;;;;;;;;;;;;;28.45;29.13;99581.28;5071835;28;869;-61
2021/09/01 09:17:13;;;;;;;;;;;;;;;28.84;28.50;99571.56;5072379;28;1275;-62
2021/09/01 09:19:43;;;;;;;;;;;;;;;28.89;29.20;99567.88;5071321;28;1941;-61
2021/09/01 09:22:10;;;;;;;;;;;;;;;29.04;28.24;99578.78;5071940;28;861;-62
2021/09/01 09:32:16;;;;;;;;;;;;;;;28.43;29.51;99552.63;5023695;27;3548124;-56
2021/09/01 09:37:06;;;;;;;;;;;;;;;28.83;29.02;99545.19;5150935;27;1310;-51
2021/09/01 09:39:52;;;;;;;;;;;;;;;29.22;28.02;99540.31;5150983;27;1123;-57
2021/09/01 09:42:33;;;;;;;;;;;;;;;29.57;27.84;99532.78;5150676;27;805;-57
2021/09/01 09:44:59;;;;;;;;;;;;;;;29.75;26.73;99522.72;5150405;27;1832;-49
2021/09/01 09:47:43;;;;;;;;;;;;;;;29.71;26.84;99517.31;5150368;27;912;-61
2021/09/01 09:50:09;;;;;;;;;;;;;;;29.82;27.67;99519.22;5150511;27;881;-61
2021/09/01 09:52:36;;;;;;;;;;;;;;;30.15;27.24;99522.78;5150506;27;889;-61
2021/09/01 09:55:12;;;;;;;;;;;;;;;29.91;27.65;99525.28;5150134;27;1909;-61
2021/09/01 09:57:52;;;;;;;;;;;;;;;28.80;28.68;99528.44;5150475;27;981;-61
2021/09/01 10:00:19;;;;;;;;;;;;;;;28.19;29.75;99520.06;5150153;27;920;-61
2021/09/01 10:02:46;;;;;;;;;;;;;;;28.69;29.74;99520.81;5150234;27;911;-62
2021/09/01 10:05:15;;;;;;;;;;;;;;;29.46;28.19;99519.50;5150011;27;809;-60
2021/09/01 10:07:43;;;;;;;;;;;;;;;30.02;27.88;99515.75;5150140;27;840;-61
2021/09/01 10:10:10;;;;;;;;;;;;;;;30.28;26.87;99517.91;5149991;27;932;-61
2021/09/01 10:12:39;;;;;;;;;;;;;;;30.15;27.32;99509.31;5150034;27;870;-61
2021/09/01 10:15:07;;;;;;;;;;;;;;;29.66;28.12;99501.06;5149906;27;1885;-61
2021/09/01 10:17:39;;;;;;;;;;;;;;;30.17;27.92;99508.75;5149925;27;814;-61
2021/09/01 10:20:07;;;;;;;;;;;;;;;30.27;27.95;99502.06;5149744;27;837;-61
2021/09/01 10:22:34;;;;;;;;;;;;;;;29.74;28.19;99498.38;5150282;27;785;-61
2021/09/01 10:25:00;;;;;;;;;;;;;;;29.41;28.44;99501.22;5149727;27;801;-60
2021/09/01 10:27:28;;;;;;;;;;;;;;;29.79;28.52;99503.22;5150030;27;821;-62
2021/09/01 10:29:59;;;;;;;;;;;;;;;29.94;27.82;99492.06;5150331;27;818;-61
2021/09/01 10:32:44;;;;;;;;;;;;;;;30.10;28.33;99493.06;5149627;27;865;-61
2021/09/01 10:35:19;;;;;;;;;;;;;;;30.40;28.02;99486.31;5149623;27;1902;-61
2021/09/01 10:37:55;;;;;;;;;;;;;;;30.91;27.05;99478.22;5149640;27;837;-61
2021/09/01 10:40:22;;;;;;;;;;;;;;;31.54;27.04;99474.72;5149555;27;877;-61
2021/09/01 10:42:52;;;;;;;;;;;;;;;31.62;26.04;99481.28;5149620;27;865;-61
2021/09/01 10:45:23;;;;;;;;;;;;;;;31.44;26.98;99470.81;5149691;27;1157;-61
2021/09/01 10:47:52;;;;;;;;;;;;;;;31.79;26.17;99465.78;5137852;27;876;-61
2021/09/01 10:50:28;;;;;;;;;;;;;;;31.77;25.90;99468.44;5135702;27;825;-61
2021/09/01 10:52:57;;;;;;;;;;;;;;;31.33;26.52;99466.88;5135659;27;847;-62
2021/09/01 10:55:23;;;;;;;;;;;;;;;30.98;27.14;99456.06;5135549;27;1902;-61
2021/09/01 10:58:08;;;;;;;;;;;;;;;31.32;26.79;99453.16;5135582;27;883;-62
2021/09/01 11:00:38;;;;;;;;;;;;;;;31.44;26.66;99450.84;5135405;27;825;-61
2021/09/01 11:03:05;;;;;;;;;;;;;;;31.74;26.12;99456.03;5135438;27;789;-61
2021/09/01 11:05:32;;;;;;;;;;;;;;;31.85;26.39;99446.41;5135360;27;888;-61
2021/09/01 11:07:58;;;;;;;;;;;;;;;31.64;25.94;99449.28;5135325;27;837;-61
2021/09/01 11:10:27;;;;;;;;;;;;;;;31.08;26.98;99445.69;5134995;27;830;-60
2021/09/01 11:13:00;;;;;;;;;;;;;;;31.26;26.96;99433.34;5135500;27;884;-60
2021/09/01 11:15:27;;;;;;;;;;;;;;;31.72;26.26;99433.72;5135151;27;1877;-61
2021/09/01 11:18:09;;;;;;;;;;;;;;;31.89;25.83;99436.13;5135121;27;916;-61
2021/09/01 11:20:35;;;;;;;;;;;;;;;31.63;25.44;99444.91;5134799;27;853;-61
2021/09/01 11:23:02;;;;;;;;;;;;;;;31.90;25.49;99431.97;5134942;27;809;-60
2021/09/01 11:25:31;;;;;;;;;;;;;;;32.13;25.54;99437.88;5134648;27;896;-61
2021/09/01 11:27:58;;;;;;;;;;;;;;;32.26;25.68;99433.34;5134851;27;864;-61
2021/09/01 11:30:32;;;;;;;;;;;;;;;32.40;25.58;99426.16;5134704;27;805;-61
2021/09/01 11:32:59;;;;;;;;;;;;;;;32.45;24.84;99428.09;5134660;27;864;-61
2021/09/01 11:35:28;;;;;;;;;;;;;;;32.23;25.18;99425.91;5134250;27;1898;-60
2021/09/01 11:37:55;;;;;;;;;;;;;;;32.23;25.13;99418.09;5134757;27;824;-61
2021/09/01 11:40:29;;;;;;;;;;;;;;;32.64;24.87;99413.50;5134427;27;872;-61
2021/09/01 11:42:55;;;;;;;;;;;;;;;33.49;24.21;99410.81;5134503;27;817;-61
2021/09/01 11:45:22;;;;;;;;;;;;;;;33.39;23.68;99410.63;5134448;27;901;-60
2021/09/01 11:47:50;;;;;;;;;;;;;;;33.10;23.71;99401.44;5134394;27;789;-60
2021/09/01 11:50:17;;;;;;;;;;;;;;;33.39;23.46;99404.88;5134246;27;849;-61
2021/09/01 11:52:51;;;;;;;;;;;;;;;33.33;23.04;99404.34;5134476;27;888;-61
2021/09/01 11:55:26;;;;;;;;;;;;;;;33.54;22.88;99404.91;5134153;27;1945;-61
2021/09/01 11:57:53;;;;;;;;;;;;;;;33.52;22.82;99396.13;5133731;27;841;-61
2021/09/01 12:00:19;;;;;;;;;;;;;;;33.64;22.91;99393.63;5133667;27;790;-60
2021/09/01 12:02:48;;;;;;;;;;;;;;;32.60;23.67;99395.94;5134237;27;888;-60
2021/09/01 12:05:27;;;;;;;;;;;;;;;32.78;24.25;99385.53;5133990;27;861;-60
2021/09/01 12:07:53;;;;;;;;;;;;;;;33.68;23.76;99381.81;5133995;27;872;-61
2021/09/01 12:10:20;;;;;;;;;;;;;;;33.73;23.37;99370.13;5133676;27;916;-61
2021/09/01 12:12:46;;;;;;;;;;;;;;;33.08;23.34;99367.66;5133863;27;940;-60
2021/09/01 12:15:17;;;;;;;;;;;;;;;32.00;24.12;99377.94;5133607;27;1944;-60
2021/09/01 12:17:59;;;;;;;;;;;;;;;30.78;26.10;99369.09;5133898;27;983;-60
2021/09/01 12:20:26;;;;;;;;;;;;;;;30.10;27.63;99379.09;5133670;27;869;-60
2021/09/01 12:22:52;;;;;;;;;;;;;;;30.48;27.47;99373.13;5133653;27;848;-60
2021/09/01 12:25:25;;;;;;;;;;;;;;;31.56;26.06;99377.84;5133543;27;956;-60
2021/09/01 12:28:00;;;;;;;;;;;;;;;32.79;25.14;99377.69;5132655;27;1569;-61
2021/09/01 12:30:27;;;;;;;;;;;;;;;33.72;23.94;99362.88;5132382;27;997;-61
2021/09/01 12:33:00;;;;;;;;;;;;;;;33.61;23.58;99362.50;5133374;27;873;-61
2021/09/01 12:35:28;;;;;;;;;;;;;;;33.51;24.03;99359.44;5133096;27;1971;-61
2021/09/01 12:38:00;;;;;;;;;;;;;;;33.42;24.07;99346.47;5133246;27;1287;-61
2021/09/01 12:40:28;;;;;;;;;;;;;;;32.81;24.09;99350.03;5133640;27;888;-60
2021/09/01 12:43:21;;;;;;;;;;;;;;;31.27;26.26;99346.38;5134113;27;912;-60
2021/09/01 12:45:47;;;;;;;;;;;;;;;31.48;26.72;99360.63;5126673;27;1215;-61
2021/09/01 12:48:19;;;;;;;;;;;;;;;32.08;25.46;99360.84;5131919;27;1328;-61
2021/09/01 12:50:46;;;;;;;;;;;;;;;31.65;25.41;99365.91;5131948;27;1207;-60
2021/09/01 12:53:21;;;;;;;;;;;;;;;30.05;27.56;99368.59;5133084;27;870;-60
2021/09/01 12:55:49;;;;;;;;;;;;;;;29.21;28.21;99374.53;5133023;27;1936;-60
2021/09/01 12:58:15;;;;;;;;;;;;;;;28.83;28.97;99368.88;5133316;27;833;-59
2021/09/01 13:00:42;;;;;;;;;;;;;;;28.59;29.68;99366.13;5133030;27;837;-60
2021/09/01 13:03:09;;;;;;;;;;;;;;;29.13;28.83;99367.91;5133175;27;913;-60
2021/09/01 13:05:35;;;;;;;;;;;;;;;28.97;28.58;99372.53;5132916;27;809;-60
2021/09/01 13:08:03;;;;;;;;;;;;;;;28.72;28.63;99363.38;5132689;27;1124;-60
2021/09/01 13:10:31;;;;;;;;;;;;;;;29.11;28.69;99368.47;5132959;27;790;-59
2021/09/01 13:12:58;;;;;;;;;;;;;;;30.03;27.43;99346.34;5132785;27;931;-60
2021/09/01 13:15:25;;;;;;;;;;;;;;;30.68;26.65;99354.53;5132940;27;1893;-60
2021/09/01 13:17:51;;;;;;;;;;;;;;;30.81;25.90;99360.19;5132744;27;802;-60
2021/09/01 13:20:18;;;;;;;;;;;;;;;30.51;26.17;99369.97;5132901;27;1009;-60
2021/09/01 13:22:45;;;;;;;;;;;;;;;30.42;26.29;99366.78;5132669;27;845;-60
2021/09/01 13:25:13;;;;;;;;;;;;;;;30.13;26.52;99358.81;5132692;27;848;-60
2021/09/01 13:27:40;;;;;;;;;;;;;;;30.07;26.37;99365.97;5132518;27;978;-60
2021/09/01 13:30:07;;;;;;;;;;;;;;;30.00;26.74;99360.91;5132511;27;960;-60
2021/09/01 13:32:35;;;;;;;;;;;;;;;30.28;26.72;99354.63;5132637;27;809;-60
2021/09/01 13:35:01;;;;;;;;;;;;;;;30.02;25.51;99361.13;5131656;27;1905;-60
2021/09/01 13:37:28;;;;;;;;;;;;;;;29.87;26.02;99365.31;5132429;27;1474;-60
2021/09/01 13:39:55;;;;;;;;;;;;;;;29.55;26.54;99361.75;5132383;27;829;-59